createdAt,value
2019-03-23T00:00:13.590Z,13.63
2019-03-23T00:03:19.534Z,13.72
2019-03-23T00:06:30.730Z,13.76
2019-03-23T00:09:29.190Z,14.25
2019-03-23T00:12:33.347Z,14.36
2019-03-23T00:15:37.753Z,13.69
2019-03-23T00:18:41.445Z,14.08
2019-03-23T00:21:45.200Z,14.07
2019-03-23T00:24:49.788Z,14.23
2019-03-23T00:27:54.192Z,14.09
2019-03-23T00:30:57.914Z,14.25
2019-03-23T00:34:01.622Z,14.18
2019-03-23T00:37:07.270Z,14.24
2019-03-23T00:40:12.767Z,14.42
2019-03-23T00:43:16.471Z,14.27
2019-03-23T00:46:20.644Z,14.49
2019-03-23T00:49:24.439Z,14.44
2019-03-23T00:52:28.562Z,14.16
2019-03-23T00:55:32.300Z,14.28
2019-03-23T00:58:36.006Z,14.19
2019-03-23T01:01:40.199Z,14.26
2019-03-23T01:04:44.655Z,14.23
2019-03-23T01:07:48.509Z,13.76
2019-03-23T01:10:52.991Z,13.84
2019-03-23T01:13:57.050Z,13.85
2019-03-23T01:17:02.486Z,13.59
2019-03-23T01:20:07.836Z,13.83
2019-03-23T01:23:11.824Z,13.78
2019-03-23T01:26:17.210Z,13.90
2019-03-23T01:29:20.962Z,13.55
2019-03-23T01:32:26.160Z,13.60
2019-03-23T01:35:29.876Z,13.39
2019-03-23T01:38:34.560Z,13.27
2019-03-23T01:41:38.303Z,13.10
2019-03-23T01:44:42.002Z,12.76
2019-03-23T01:47:45.719Z,12.92
2019-03-23T01:50:49.443Z,13.02
2019-03-23T01:53:53.503Z,13.25
2019-03-23T01:56:57.238Z,13.21
2019-03-23T02:00:01.330Z,13.16
2019-03-23T02:03:05.279Z,13.43
2019-03-23T02:06:09.007Z,13.29
2019-03-23T02:09:12.719Z,13.20
2019-03-23T02:12:16.761Z,13.44
2019-03-23T02:15:20.464Z,13.00
2019-03-23T02:18:24.558Z,12.98
2019-03-23T02:21:29.487Z,12.80
2019-03-23T02:24:33.525Z,12.84
2019-03-23T02:27:37.267Z,12.74
2019-03-23T02:30:41.733Z,12.69
2019-03-23T02:33:45.440Z,12.74
2019-03-23T02:36:50.045Z,12.94
2019-03-23T02:39:54.131Z,12.95
2019-03-23T02:42:59.629Z,12.91
2019-03-23T02:46:03.354Z,12.48
2019-03-23T02:49:07.066Z,12.82
2019-03-23T02:52:11.165Z,12.51
2019-03-23T02:55:14.863Z,12.49
2019-03-23T02:58:19.605Z,12.03
2019-03-23T03:01:24.198Z,12.28
2019-03-23T03:04:29.876Z,12.18
2019-03-23T03:07:41.790Z,12.55
2019-03-23T03:10:40.912Z,12.15
2019-03-23T03:13:44.642Z,11.88
2019-03-23T03:16:48.687Z,12.16
2019-03-23T03:19:53.109Z,12.18
2019-03-23T03:22:57.663Z,11.87
2019-03-23T03:26:02.929Z,11.95
2019-03-23T03:29:06.630Z,11.81
2019-03-23T03:32:10.360Z,11.80
2019-03-23T03:35:15.221Z,11.83
2019-03-23T03:38:19.699Z,12.15
2019-03-23T03:41:23.412Z,12.04
2019-03-23T03:44:27.121Z,12.01
2019-03-23T03:47:30.845Z,11.80
2019-03-23T03:50:34.552Z,11.70
2019-03-23T03:53:38.633Z,11.57
2019-03-23T03:56:43.410Z,11.60
2019-03-23T03:59:47.107Z,11.39
2019-03-23T04:02:51.626Z,11.37
2019-03-23T04:05:55.648Z,11.27
2019-03-23T04:09:00.558Z,11.44
2019-03-23T04:12:04.610Z,11.49
2019-03-23T04:15:09.254Z,11.32
2019-03-23T04:18:12.973Z,11.37
2019-03-23T04:21:16.738Z,11.41
2019-03-23T04:24:20.858Z,11.26
2019-03-23T04:27:24.588Z,10.92
2019-03-23T04:30:29.285Z,11.25
2019-03-23T04:33:33.854Z,11.25
2019-03-23T04:36:38.357Z,11.10
2019-03-23T04:39:42.062Z,11.09
2019-03-23T04:42:45.883Z,11.22
2019-03-23T04:45:50.006Z,11.33
2019-03-23T04:48:53.729Z,11.27
2019-03-23T04:51:58.472Z,11.14
2019-03-23T04:55:02.196Z,11.44
2019-03-23T04:58:06.394Z,11.12
2019-03-23T05:01:10.740Z,10.45
2019-03-23T05:04:15.249Z,11.02
2019-03-23T05:07:18.980Z,10.70
2019-03-23T05:10:23.392Z,10.82
2019-03-23T05:13:27.984Z,10.74
2019-03-23T05:16:31.704Z,10.38
2019-03-23T05:19:36.155Z,10.56
2019-03-23T05:22:39.977Z,10.37
2019-03-23T05:25:44.103Z,11.05
2019-03-23T05:28:49.207Z,11.48
2019-03-23T05:31:53.284Z,11.55
2019-03-23T05:34:57.342Z,11.00
2019-03-23T05:38:01.064Z,11.01
2019-03-23T05:41:05.678Z,10.67
2019-03-23T05:44:09.410Z,11.04
2019-03-23T05:47:13.530Z,10.98
2019-03-23T05:50:17.242Z,11.12
2019-03-23T05:53:20.974Z,10.51
2019-03-23T05:56:25.474Z,11.16
2019-03-23T05:59:29.200Z,10.98
2019-03-23T06:02:32.942Z,10.97
2019-03-23T06:05:37.386Z,10.96
2019-03-23T06:08:42.788Z,10.93
2019-03-23T06:11:46.510Z,10.80
2019-03-23T06:14:50.218Z,10.99
2019-03-23T06:17:53.926Z,10.95
2019-03-23T06:20:57.919Z,10.59
2019-03-23T06:24:01.663Z,10.45
2019-03-23T06:27:06.974Z,10.60
2019-03-23T06:30:11.450Z,10.33
2019-03-23T06:33:15.186Z,10.50
2019-03-23T06:36:18.892Z,10.73
2019-03-23T06:39:22.620Z,10.78
2019-03-23T06:42:27.450Z,11.02
2019-03-23T06:45:31.162Z,10.99
2019-03-23T06:48:35.177Z,10.61
2019-03-23T06:51:38.876Z,10.97
2019-03-23T06:54:42.616Z,10.87
2019-03-23T06:57:46.359Z,10.79
2019-03-23T07:00:50.072Z,10.93
2019-03-23T07:03:54.656Z,11.23
2019-03-23T07:06:58.385Z,11.02
2019-03-23T07:10:02.214Z,11.01
2019-03-23T07:13:06.841Z,11.21
2019-03-23T07:16:10.919Z,10.71
2019-03-23T07:19:14.991Z,10.94
2019-03-23T07:22:18.719Z,11.05
2019-03-23T07:25:22.443Z,10.92
2019-03-23T07:28:26.931Z,11.11
2019-03-23T07:31:30.640Z,11.12
2019-03-23T07:34:35.776Z,11.19
2019-03-23T07:37:40.912Z,11.24
2019-03-23T07:40:44.636Z,11.32
2019-03-23T07:43:48.354Z,11.34
2019-03-23T07:46:52.054Z,11.37
2019-03-23T07:49:56.552Z,11.37
2019-03-23T07:53:00.571Z,11.60
2019-03-23T07:56:04.791Z,11.64
2019-03-23T07:59:08.544Z,11.39
2019-03-23T08:02:12.606Z,11.28
2019-03-23T08:05:16.599Z,11.17
2019-03-23T08:08:21.851Z,11.35
2019-03-23T08:11:26.332Z,11.38
2019-03-23T08:14:31.482Z,11.49
2019-03-23T08:17:36.564Z,11.39
2019-03-23T08:20:40.672Z,11.27
2019-03-23T08:23:44.931Z,11.49
2019-03-23T08:26:49.135Z,11.55
2019-03-23T08:29:54.689Z,11.66
2019-03-23T08:32:58.423Z,11.62
2019-03-23T08:36:02.209Z,11.46
2019-03-23T08:39:07.918Z,11.56
2019-03-23T08:42:11.940Z,11.71
2019-03-23T08:45:15.928Z,11.68
2019-03-23T08:48:22.807Z,11.44
2019-03-23T08:51:26.860Z,11.53
2019-03-23T08:54:31.673Z,11.41
2019-03-23T08:57:36.990Z,11.39
2019-03-23T09:00:41.167Z,11.43
2019-03-23T09:03:52.401Z,11.57
2019-03-23T09:06:50.899Z,11.49
2019-03-23T09:09:59.440Z,11.20
2019-03-23T09:13:00.809Z,11.35
2019-03-23T09:16:04.525Z,11.51
2019-03-23T09:19:09.792Z,11.73
2019-03-23T09:22:13.887Z,11.68
2019-03-23T09:25:17.945Z,11.99
2019-03-23T09:28:21.786Z,11.62
2019-03-23T09:31:25.899Z,11.63
2019-03-23T09:34:30.071Z,11.87
2019-03-23T09:37:38.299Z,11.77
2019-03-23T09:40:41.195Z,11.91
2019-03-23T09:43:45.192Z,11.72
2019-03-23T09:46:48.902Z,11.69
2019-03-23T09:49:54.343Z,11.78
2019-03-23T09:52:58.071Z,11.85
2019-03-23T09:56:02.900Z,12.13
2019-03-23T09:59:08.634Z,11.96
2019-03-23T10:02:12.669Z,11.97
2019-03-23T10:05:16.402Z,12.07
2019-03-23T10:08:21.441Z,12.02
2019-03-23T10:11:25.624Z,11.76
2019-03-23T10:14:29.702Z,11.93
2019-03-23T10:17:33.423Z,12.13
2019-03-23T10:20:39.223Z,12.16
2019-03-23T10:23:43.359Z,12.18
2019-03-23T10:26:47.087Z,11.79
2019-03-23T10:29:52.713Z,11.75
2019-03-23T10:32:56.880Z,11.69
2019-03-23T10:36:00.619Z,11.92
2019-03-23T10:39:05.669Z,11.96
2019-03-23T10:42:09.726Z,12.09
2019-03-23T10:45:13.855Z,11.92
2019-03-23T10:48:18.259Z,11.81
2019-03-23T10:51:22.377Z,11.87
2019-03-23T10:54:26.113Z,12.08
2019-03-23T10:57:30.696Z,12.16
2019-03-23T11:00:34.904Z,12.09
2019-03-23T11:03:38.740Z,12.06
2019-03-23T11:06:43.246Z,12.11
2019-03-23T11:09:46.962Z,12.32
2019-03-23T11:12:52.140Z,12.22
2019-03-23T11:15:56.255Z,12.47
2019-03-23T11:18:59.976Z,12.54
2019-03-23T11:22:04.431Z,12.59
2019-03-23T11:25:11.835Z,12.52
2019-03-23T11:28:15.875Z,12.51
2019-03-23T11:31:19.970Z,12.71
2019-03-23T11:34:23.688Z,13.02
2019-03-23T11:37:27.797Z,13.12
2019-03-23T11:40:32.818Z,12.92
2019-03-23T11:43:36.517Z,13.08
2019-03-23T11:46:40.336Z,13.06
2019-03-23T11:49:45.499Z,13.07
2019-03-23T11:52:49.249Z,13.02
2019-03-23T11:55:52.980Z,12.88
2019-03-23T11:58:58.295Z,13.29
2019-03-23T12:02:03.619Z,13.48
2019-03-23T12:05:08.440Z,13.71
2019-03-23T12:08:12.833Z,13.76
2019-03-23T12:11:16.622Z,13.24
2019-03-23T12:14:21.068Z,13.82
2019-03-23T12:17:26.491Z,13.89
2019-03-23T12:20:30.188Z,14.39
2019-03-23T12:23:33.928Z,14.95
2019-03-23T12:26:38.024Z,14.85
2019-03-23T12:29:41.770Z,14.80
2019-03-23T12:32:45.565Z,14.90
2019-03-23T12:35:49.373Z,14.98
2019-03-23T12:38:53.771Z,14.58
2019-03-23T12:41:57.867Z,14.24
2019-03-23T12:45:01.578Z,14.18
2019-03-23T12:48:05.999Z,14.13
2019-03-23T12:51:10.107Z,14.03
2019-03-23T12:54:13.837Z,14.25
2019-03-23T12:57:18.859Z,14.28
2019-03-23T13:00:22.632Z,14.90
2019-03-23T13:03:26.378Z,14.92
2019-03-23T13:06:30.408Z,14.60
2019-03-23T13:09:35.540Z,14.25
2019-03-23T13:12:39.698Z,13.94
2019-03-23T13:15:43.768Z,13.85
2019-03-23T13:18:47.859Z,13.77
2019-03-23T13:21:51.878Z,13.79
2019-03-23T13:24:56.018Z,14.02
2019-03-23T13:28:00.439Z,14.09
2019-03-23T13:31:04.188Z,14.09
2019-03-23T13:34:09.051Z,14.36
2019-03-23T13:37:13.213Z,14.27
2019-03-23T13:40:16.919Z,14.31
2019-03-23T13:43:21.075Z,14.27
2019-03-23T13:46:25.193Z,14.10
2019-03-23T13:49:28.898Z,14.10
2019-03-23T13:52:33.824Z,13.98
2019-03-23T13:55:37.540Z,14.08
2019-03-23T13:58:41.261Z,14.08
2019-03-23T14:01:45.044Z,14.09
2019-03-23T14:04:50.280Z,13.96
2019-03-23T14:07:54.244Z,13.96
2019-03-23T14:10:57.974Z,13.99
2019-03-23T14:14:01.704Z,13.91
2019-03-23T14:17:05.430Z,13.74
2019-03-23T14:20:09.734Z,13.85
2019-03-23T14:23:13.849Z,13.90
2019-03-23T14:26:17.590Z,13.97
2019-03-23T14:29:21.298Z,14.04
2019-03-23T14:32:26.832Z,14.01
2019-03-23T14:35:30.540Z,14.02
2019-03-23T14:38:35.029Z,13.92
2019-03-23T14:41:38.768Z,13.94
2019-03-23T14:44:43.207Z,13.88
2019-03-23T14:47:47.326Z,13.84
2019-03-23T14:50:51.023Z,13.66
2019-03-23T14:53:54.804Z,13.73
2019-03-23T14:56:58.896Z,13.70
2019-03-23T15:00:02.829Z,13.75
2019-03-23T15:03:06.885Z,13.58
2019-03-23T15:06:10.613Z,13.49
2019-03-23T15:09:14.340Z,13.61
2019-03-23T15:12:18.060Z,13.63
2019-03-23T15:15:21.791Z,13.66
2019-03-23T15:18:25.508Z,13.64
2019-03-23T15:21:29.212Z,13.62
2019-03-23T15:24:32.929Z,13.65
2019-03-23T15:27:36.660Z,13.59
2019-03-23T15:30:41.121Z,13.58
2019-03-23T15:33:44.947Z,13.67
2019-03-23T15:36:48.655Z,13.74
2019-03-23T15:39:54.820Z,13.72
2019-03-23T15:42:58.527Z,13.81
2019-03-23T15:46:02.293Z,13.86
2019-03-23T15:49:07.776Z,13.89
2019-03-23T15:52:13.032Z,13.75
2019-03-23T15:55:17.131Z,13.74
2019-03-23T15:58:21.879Z,13.70
2019-03-23T16:01:26.039Z,13.63
2019-03-23T16:04:30.561Z,13.64
2019-03-23T16:07:34.274Z,13.51
2019-03-23T16:10:38.396Z,13.62
2019-03-23T16:13:42.490Z,13.50
2019-03-23T16:16:46.967Z,13.51
2019-03-23T16:19:51.471Z,13.49
2019-03-23T16:22:55.199Z,13.51
2019-03-23T16:25:58.937Z,13.51
2019-03-23T16:29:02.738Z,13.52
2019-03-23T16:32:06.506Z,13.49
2019-03-23T16:35:11.629Z,13.49
2019-03-23T16:38:15.664Z,13.47
2019-03-23T16:41:19.684Z,13.54
2019-03-23T16:44:23.838Z,13.48
2019-03-23T16:47:28.626Z,13.43
2019-03-23T16:50:32.343Z,13.41
2019-03-23T16:53:36.503Z,13.40
2019-03-23T16:56:41.041Z,13.37
2019-03-23T16:59:45.131Z,13.36
2019-03-23T17:02:49.609Z,13.46
2019-03-23T17:05:53.623Z,13.43
2019-03-23T17:08:57.691Z,13.38
2019-03-23T17:12:01.752Z,13.42
2019-03-23T17:15:07.226Z,13.35
2019-03-23T17:18:11.588Z,13.41
2019-03-23T17:21:15.607Z,13.32
2019-03-23T17:24:20.526Z,13.38
2019-03-23T17:27:24.575Z,13.39
2019-03-23T17:30:28.382Z,13.26
2019-03-23T17:33:32.399Z,13.17
2019-03-23T17:36:36.570Z,13.21
2019-03-23T17:39:40.668Z,13.25
2019-03-23T17:42:44.405Z,13.31
2019-03-23T17:45:48.451Z,13.29
2019-03-23T17:48:54.920Z,13.30
2019-03-23T17:51:59.438Z,13.26
2019-03-23T17:55:03.251Z,13.23
2019-03-23T17:58:08.222Z,13.23
2019-03-23T18:01:19.273Z,13.17
2019-03-23T18:04:20.796Z,13.26
2019-03-23T18:07:25.958Z,13.28
2019-03-23T18:10:30.114Z,13.25
2019-03-23T18:13:34.248Z,13.30
2019-03-23T18:16:38.336Z,13.19
2019-03-23T18:19:42.427Z,13.18
2019-03-23T18:22:46.140Z,13.20
2019-03-23T18:25:49.857Z,13.23
2019-03-23T18:28:55.220Z,13.21
2019-03-23T18:31:58.974Z,13.20
2019-03-23T18:35:03.351Z,13.15
2019-03-23T18:38:07.583Z,13.20
2019-03-23T18:41:11.651Z,13.15
2019-03-23T18:44:16.336Z,13.09
2019-03-23T18:47:21.180Z,13.07
2019-03-23T18:50:24.891Z,13.06
2019-03-23T18:53:29.488Z,12.95
2019-03-23T18:56:33.218Z,13.07
2019-03-23T18:59:37.384Z,12.99
2019-03-23T19:02:41.133Z,13.03
2019-03-23T19:05:45.931Z,13.05
2019-03-23T19:08:50.003Z,12.98
2019-03-23T19:11:54.007Z,13.09
2019-03-23T19:14:57.712Z,12.95
2019-03-23T19:18:01.829Z,12.93
2019-03-23T19:21:05.535Z,12.90
2019-03-23T19:24:09.586Z,12.90
2019-03-23T19:27:15.549Z,12.92
2019-03-23T19:30:19.914Z,12.95
2019-03-23T19:33:24.060Z,12.94
2019-03-23T19:36:28.160Z,12.96
2019-03-23T19:39:31.888Z,12.96
2019-03-23T19:42:37.514Z,12.90
2019-03-23T19:45:42.342Z,13.00
2019-03-23T19:48:47.693Z,12.81
2019-03-23T19:51:51.410Z,12.80
2019-03-23T19:54:55.543Z,12.86
2019-03-23T19:57:59.695Z,12.83
2019-03-23T20:01:03.411Z,12.90
2019-03-23T20:04:07.852Z,12.71
2019-03-23T20:07:11.601Z,12.73
2019-03-23T20:10:16.811Z,12.85
2019-03-23T20:13:21.220Z,12.75
2019-03-23T20:16:24.937Z,12.78
2019-03-23T20:19:31.606Z,12.76
2019-03-23T20:22:35.726Z,12.59
2019-03-23T20:25:39.924Z,12.70
2019-03-23T20:28:43.870Z,12.72
2019-03-23T20:31:47.959Z,12.85
2019-03-23T20:34:52.647Z,12.73
2019-03-23T20:37:57.164Z,12.86
2019-03-23T20:41:01.274Z,12.84
2019-03-23T20:44:09.563Z,12.75
2019-03-23T20:47:11.647Z,12.77
2019-03-23T20:50:15.716Z,12.70
2019-03-23T20:53:19.741Z,12.79
2019-03-23T20:56:23.805Z,12.70
2019-03-23T20:59:28.229Z,12.74
2019-03-23T21:02:32.449Z,12.72
2019-03-23T21:05:36.156Z,12.69
2019-03-23T21:08:40.963Z,12.65
2019-03-23T21:11:44.678Z,12.50
2019-03-23T21:14:49.402Z,12.53
2019-03-23T21:17:55.614Z,12.74
2019-03-23T21:20:59.319Z,12.55
2019-03-23T21:24:03.459Z,12.60
2019-03-23T21:27:07.592Z,12.65
2019-03-23T21:30:13.553Z,12.67
2019-03-23T21:33:17.685Z,12.53
2019-03-23T21:36:21.382Z,12.58
2019-03-23T21:39:25.571Z,12.57
2019-03-23T21:42:30.485Z,12.62
2019-03-23T21:45:34.198Z,12.55
2019-03-23T21:48:38.252Z,12.45
2019-03-23T21:51:42.304Z,12.63
2019-03-23T21:54:46.337Z,12.45
2019-03-23T21:57:50.451Z,12.45
2019-03-23T22:00:54.279Z,12.45
2019-03-23T22:03:58.017Z,12.58
2019-03-23T22:07:01.742Z,12.54
2019-03-23T22:10:06.647Z,12.49
2019-03-23T22:13:12.367Z,12.52
2019-03-23T22:16:16.383Z,12.50
2019-03-23T22:19:20.109Z,12.32
2019-03-23T22:22:24.194Z,12.39
2019-03-23T22:25:28.227Z,12.35
2019-03-23T22:28:32.254Z,12.41
2019-03-23T22:31:36.355Z,12.30
2019-03-23T22:34:40.486Z,12.30
2019-03-23T22:37:44.643Z,12.25
2019-03-23T22:40:48.354Z,12.40
2019-03-23T22:43:52.086Z,12.42
2019-03-23T22:46:55.795Z,12.40
2019-03-23T22:50:01.649Z,12.45
2019-03-23T22:53:07.191Z,12.35
2019-03-23T22:56:11.245Z,12.41
2019-03-23T22:59:15.499Z,12.32
2019-03-23T23:02:19.446Z,12.17
2019-03-23T23:05:23.164Z,12.20
2019-03-23T23:08:26.871Z,12.31
2019-03-23T23:11:30.591Z,12.09
2019-03-23T23:14:34.722Z,12.13
2019-03-23T23:17:38.589Z,12.03
2019-03-23T23:20:42.727Z,12.15
2019-03-23T23:23:46.449Z,12.20
2019-03-23T23:26:50.541Z,12.15
2019-03-23T23:29:54.679Z,11.85
2019-03-23T23:32:58.605Z,12.02
2019-03-23T23:36:02.528Z,12.16
2019-03-23T23:39:07.704Z,12.11
2019-03-23T23:42:12.270Z,12.02
2019-03-23T23:45:16.616Z,11.98
2019-03-23T23:48:20.688Z,12.06
2019-03-23T23:51:25.167Z,11.92
2019-03-23T23:54:28.896Z,12.13
2019-03-23T23:57:34.503Z,12.03
